In Rescue
 
Open Full Screen Window  High Contrast Mode
Wind Gusting 00 knots
06
May 20, 2019 2:14 PM CDT
Weather Information
Wind Direction
  030 °
Wind Speed
  06 kt (7 mph)
Wind Gust
  00 kt (0 mph)
Altimeter
30.12 in
Visibility
10 SM
Temperature
16° C
61° F
Dewpoint
02° C
36° F
Humidity
39%
1hr Rain Fall
00.00 in.
24hr Rain Fall
00.06 in.
Sky Condition
Clear
VFR

METAR KANE 201914Z AUTO 03006KT 10SM CLR 16/02 A3012 RMK AO2

FAA Disclaimer: The data displayed is for advisory purposes only and is not to be used for flight planning or operations.